createdAt,value
2017-02-11T00:00:55.659Z,-0.5
2017-02-11T00:01:58.620Z,-0.5
2017-02-11T00:03:00.559Z,-0.5
2017-02-11T00:04:02.997Z,-0.5
2017-02-11T00:05:05.434Z,-0.5
2017-02-11T00:07:10.778Z,-0.5
2017-02-11T00:08:13.045Z,-0.5
2017-02-11T00:09:15.316Z,-0.5
2017-02-11T00:10:18.258Z,-0.5
2017-02-11T00:11:20.698Z,-0.5
2017-02-11T00:12:23.138Z,-0.5
2017-02-11T00:13:25.575Z,-0.5
2017-02-11T00:14:28.011Z,-0.5
2017-02-11T00:15:30.456Z,-0.5
2017-02-11T00:16:33.138Z,-0.5
2017-02-11T00:17:35.579Z,-0.5
2017-02-11T00:18:38.024Z,-0.5
2017-02-11T00:20:42.874Z,-0.5
2017-02-11T00:21:45.311Z,-0.6
2017-02-11T00:22:47.763Z,-0.5
2017-02-11T00:24:52.603Z,-0.6
2017-02-11T00:25:55.546Z,-0.6
2017-02-11T00:26:57.986Z,-0.6
2017-02-11T00:28:00.434Z,-0.6
2017-02-11T00:29:02.875Z,-0.6
2017-02-11T00:30:05.317Z,-0.6
2017-02-11T00:31:07.757Z,-0.6
2017-02-11T00:32:10.027Z,-0.6
2017-02-11T00:33:12.472Z,-0.6
2017-02-11T00:34:15.421Z,-0.6
2017-02-11T00:35:17.864Z,-0.6
2017-02-11T00:36:20.308Z,-0.6
2017-02-11T00:37:22.747Z,-0.6
2017-02-11T00:38:25.183Z,-0.6
2017-02-11T00:39:27.622Z,-0.6
2017-02-11T00:40:30.065Z,-0.6
2017-02-11T00:41:32.503Z,-0.6
2017-02-11T00:42:34.969Z,-0.6
2017-02-11T00:43:37.409Z,-0.6
2017-02-11T00:44:39.846Z,-0.6
2017-02-11T00:45:42.293Z,-0.6
2017-02-11T00:46:45.243Z,-0.6
2017-02-11T00:47:47.516Z,-0.6
2017-02-11T00:49:52.362Z,-0.6
2017-02-11T00:50:54.633Z,-0.6
2017-02-11T00:52:59.980Z,-0.6
2017-02-11T00:54:02.425Z,-0.6
2017-02-11T00:55:04.866Z,-0.6
2017-02-11T00:56:07.307Z,-0.6
2017-02-11T00:57:09.579Z,-0.6
2017-02-11T00:58:12.419Z,-0.6
2017-02-11T00:59:14.856Z,-0.6
2017-02-11T01:00:17.301Z,-0.6
2017-02-11T01:01:19.739Z,-0.6
2017-02-11T01:02:22.180Z,-0.6
2017-02-11T01:03:24.619Z,-0.6
2017-02-11T01:04:27.055Z,-0.6
2017-02-11T01:05:29.999Z,-0.6
2017-02-11T01:06:32.437Z,-0.6
2017-02-11T01:07:34.709Z,-0.6
2017-02-11T01:08:37.158Z,-0.6
2017-02-11T01:09:39.595Z,-0.6
2017-02-11T01:10:42.030Z,-0.6
2017-02-11T01:11:44.468Z,-0.6
2017-02-11T01:12:47.955Z,-0.6
2017-02-11T01:13:49.890Z,-0.6
2017-02-11T01:14:52.331Z,-0.6
2017-02-11T01:15:54.824Z,-0.6
2017-02-11T01:16:57.266Z,-0.6
2017-02-11T01:17:59.705Z,-0.6
2017-02-11T01:19:02.145Z,-0.6
2017-02-11T01:20:04.417Z,-0.6
2017-02-11T01:21:06.858Z,-0.6
2017-02-11T01:22:09.292Z,-0.6
2017-02-11T01:23:12.238Z,-0.6
2017-02-11T01:24:14.685Z,-0.6
2017-02-11T01:25:17.082Z,-0.6
2017-02-11T01:26:19.522Z,-0.6
2017-02-11T01:27:22.494Z,-0.6
2017-02-11T01:28:24.435Z,-0.6
2017-02-11T01:29:26.889Z,-0.6
2017-02-11T01:30:29.327Z,-0.6
2017-02-11T01:31:31.765Z,-0.6
2017-02-11T01:32:34.204Z,-0.6
2017-02-11T01:33:36.644Z,-0.6
2017-02-11T01:34:39.087Z,-0.6
2017-02-11T01:35:42.027Z,-0.6
2017-02-11T01:36:44.463Z,-0.6
2017-02-11T01:38:49.306Z,-0.6
2017-02-11T01:39:51.744Z,-0.6
2017-02-11T01:40:54.189Z,-0.6
2017-02-11T01:41:56.461Z,-0.6
2017-02-11T01:42:59.241Z,-0.6
2017-02-11T01:45:04.082Z,-0.6
2017-02-11T01:46:06.528Z,-0.6
2017-02-11T01:47:08.969Z,-0.6
2017-02-11T01:48:11.416Z,-0.6
2017-02-11T01:49:13.856Z,-0.6
2017-02-11T01:50:16.296Z,-0.6
2017-02-11T01:51:19.246Z,-0.6
2017-02-11T01:52:21.683Z,-0.6
2017-02-11T01:53:24.120Z,-0.6
2017-02-11T01:54:26.564Z,-0.6
2017-02-11T01:55:29.013Z,-0.6
2017-02-11T01:56:31.477Z,-0.6
2017-02-11T01:57:33.920Z,-0.6
2017-02-11T01:58:36.359Z,-0.6
2017-02-11T01:59:38.800Z,-0.6
2017-02-11T02:00:41.239Z,-0.6
2017-02-11T02:01:43.679Z,-0.6
2017-02-11T02:02:46.116Z,-0.6
2017-02-11T02:03:49.057Z,-0.6
2017-02-11T02:04:51.495Z,-0.6
2017-02-11T02:05:53.938Z,-0.6
2017-02-11T02:06:56.383Z,-0.6
2017-02-11T02:07:58.655Z,-0.6
2017-02-11T02:09:01.091Z,-0.6
2017-02-11T02:11:06.440Z,-0.6
2017-02-11T02:12:08.540Z,-0.6
2017-02-11T02:13:10.981Z,-0.6
2017-02-11T02:14:13.083Z,-0.6
2017-02-11T02:15:16.358Z,-0.6
2017-02-11T02:16:18.798Z,-0.6
2017-02-11T02:17:21.071Z,-0.6
2017-02-11T02:18:23.513Z,-0.6
2017-02-11T02:19:25.997Z,-0.6
2017-02-11T02:20:28.436Z,-0.6
2017-02-11T02:21:30.870Z,-0.6
2017-02-11T02:23:36.073Z,-0.6
2017-02-11T02:24:38.509Z,-0.6
2017-02-11T02:25:40.944Z,-0.6
2017-02-11T02:26:43.384Z,-0.6
2017-02-11T02:27:45.824Z,-0.6
2017-02-11T02:28:48.262Z,-0.6
2017-02-11T02:29:50.536Z,-0.6
2017-02-11T02:30:54.015Z,-0.6
2017-02-11T02:34:00.765Z,-0.6
2017-02-11T02:35:03.034Z,-0.6
2017-02-11T02:36:05.808Z,-0.6
2017-02-11T02:37:07.909Z,-0.6
2017-02-11T02:38:10.849Z,-0.6
2017-02-11T02:39:13.126Z,-0.6
2017-02-11T02:40:15.569Z,-0.6
2017-02-11T02:41:18.009Z,-0.6
2017-02-11T02:42:20.952Z,-0.6
2017-02-11T02:43:23.395Z,-0.6
2017-02-11T02:44:25.837Z,-0.6
2017-02-11T02:45:28.275Z,-0.6
2017-02-11T02:46:30.723Z,-0.6
2017-02-11T02:47:33.164Z,-0.6
2017-02-11T02:48:35.609Z,-0.6
2017-02-11T02:49:38.047Z,-0.6
2017-02-11T02:50:40.486Z,-0.6
2017-02-11T02:51:42.922Z,-0.6
2017-02-11T02:52:45.357Z,-0.6
2017-02-11T02:53:47.796Z,-0.6
2017-02-11T02:54:50.744Z,-0.6
2017-02-11T02:55:53.184Z,-0.6
2017-02-11T02:57:58.029Z,-0.6
2017-02-11T02:59:00.477Z,-0.6
2017-02-11T03:00:02.918Z,-0.6
2017-02-11T03:01:05.882Z,-0.6
2017-02-11T03:02:07.813Z,-0.6
2017-02-11T03:03:10.589Z,-0.6
2017-02-11T03:04:12.860Z,-0.6
2017-02-11T03:05:15.299Z,-0.6
2017-02-11T03:06:18.270Z,-0.6
2017-02-11T03:07:20.207Z,-0.6
2017-02-11T03:08:22.646Z,-0.6
2017-02-11T03:09:25.086Z,-0.6
2017-02-11T03:10:27.525Z,-0.6
2017-02-11T03:11:30.469Z,-0.7
2017-02-11T03:12:32.917Z,-0.7
2017-02-11T03:13:35.367Z,-0.7
2017-02-11T03:14:37.817Z,-0.7
2017-02-11T03:15:40.267Z,-0.7
2017-02-11T03:16:42.718Z,-0.7
2017-02-11T03:17:45.165Z,-0.7
2017-02-11T03:18:47.614Z,-0.7
2017-02-11T03:19:50.079Z,-0.7
2017-02-11T03:20:52.525Z,-0.7
2017-02-11T03:21:54.974Z,-0.7
2017-02-11T03:22:57.425Z,-0.7
2017-02-11T03:23:59.702Z,-0.7
2017-02-11T03:25:03.179Z,-0.7
2017-02-11T03:26:04.959Z,-0.7
2017-02-11T03:27:07.241Z,-0.7
2017-02-11T03:28:09.545Z,-0.7
2017-02-11T03:29:12.160Z,-0.7
2017-02-11T03:30:14.948Z,-0.7
2017-02-11T03:31:17.417Z,-0.7
2017-02-11T03:32:19.861Z,-0.7
2017-02-11T03:33:22.304Z,-0.7
2017-02-11T03:34:24.750Z,-0.7
2017-02-11T03:35:27.200Z,-0.7
2017-02-11T03:36:29.644Z,-0.7
2017-02-11T03:37:32.088Z,-0.7
2017-02-11T03:38:35.065Z,-0.7
2017-02-11T03:39:37.009Z,-0.7
2017-02-11T03:40:39.958Z,-0.7
2017-02-11T03:41:42.407Z,-0.7
2017-02-11T03:42:44.861Z,-0.7
2017-02-11T03:43:47.152Z,-0.7
2017-02-11T03:44:49.598Z,-0.7
2017-02-11T03:45:52.048Z,-0.7
2017-02-11T03:46:54.500Z,-0.7
2017-02-11T03:47:57.284Z,-0.7
2017-02-11T03:48:59.566Z,-0.7
2017-02-11T03:50:01.849Z,-0.7
2017-02-11T03:51:04.296Z,-0.7
2017-02-11T03:52:07.077Z,-0.7
2017-02-11T03:53:10.050Z,-0.7
2017-02-11T03:54:11.992Z,-0.7
2017-02-11T03:55:14.272Z,-0.7
2017-02-11T03:56:16.758Z,-0.7
2017-02-11T03:57:19.213Z,-0.7
2017-02-11T03:58:21.657Z,-0.7
2017-02-11T04:00:27.019Z,-0.7
2017-02-11T04:02:31.875Z,-0.7
2017-02-11T04:03:34.320Z,-0.7
2017-02-11T04:04:36.767Z,-0.7
2017-02-11T04:07:44.557Z,-0.7
2017-02-11T04:08:46.500Z,-0.8
2017-02-11T04:09:48.951Z,-0.8
2017-02-11T04:10:51.911Z,-0.8
2017-02-11T04:11:54.885Z,-0.8
2017-02-11T04:12:57.352Z,-0.7
2017-02-11T04:13:59.292Z,-0.7
2017-02-11T04:15:01.738Z,-0.7
2017-02-11T04:16:04.190Z,-0.7
2017-02-11T04:17:06.642Z,-0.8
2017-02-11T04:18:08.947Z,-0.8
2017-02-11T04:19:11.398Z,-0.8
2017-02-11T04:20:13.673Z,-0.8
2017-02-11T04:21:16.455Z,-0.8
2017-02-11T04:23:21.140Z,-0.8
2017-02-11T04:24:24.086Z,-0.8
2017-02-11T04:25:26.531Z,-0.8
2017-02-11T04:26:28.975Z,-0.8
2017-02-11T04:27:31.420Z,-0.8
2017-02-11T04:28:33.873Z,-0.8
2017-02-11T04:29:36.319Z,-0.8
2017-02-11T04:30:38.771Z,-0.8
2017-02-11T04:31:41.259Z,-0.8
2017-02-11T04:32:43.706Z,-0.8
2017-02-11T04:33:46.153Z,-0.8
2017-02-11T04:34:48.452Z,-0.8
2017-02-11T04:35:51.402Z,-0.8
2017-02-11T04:36:53.847Z,-0.8
2017-02-11T04:37:56.294Z,-0.8
2017-02-11T04:38:58.749Z,-0.8
2017-02-11T04:40:01.195Z,-0.8
2017-02-11T04:41:03.641Z,-0.8
2017-02-11T04:42:06.627Z,-0.8
2017-02-11T04:43:09.104Z,-0.8
2017-02-11T04:44:11.074Z,-0.8
2017-02-11T04:45:13.525Z,-0.8
2017-02-11T04:46:15.970Z,-0.8
2017-02-11T04:47:18.413Z,-0.8
2017-02-11T04:48:20.863Z,-0.8
2017-02-11T04:49:23.313Z,-0.8
2017-02-11T04:50:25.754Z,-0.8
2017-02-11T04:51:28.208Z,-0.8
2017-02-11T04:52:30.653Z,-0.8
2017-02-11T04:53:33.605Z,-0.7
2017-02-11T04:54:36.055Z,-0.8
2017-02-11T04:55:38.334Z,-0.7
2017-02-11T04:56:40.782Z,-0.7
2017-02-11T04:57:43.232Z,-0.7
2017-02-11T04:58:45.679Z,-0.7
2017-02-11T04:59:48.125Z,-0.7
2017-02-11T05:00:50.909Z,-0.7
2017-02-11T05:01:53.899Z,-0.7
2017-02-11T05:02:55.845Z,-0.7
2017-02-11T05:03:58.291Z,-0.7
2017-02-11T05:06:03.143Z,-0.7
2017-02-11T05:07:05.426Z,-0.7
2017-02-11T05:09:10.783Z,-0.7
2017-02-11T05:10:13.230Z,-0.7
2017-02-11T05:11:15.681Z,-0.7
2017-02-11T05:12:18.130Z,-0.7
2017-02-11T05:13:20.583Z,-0.7
2017-02-11T05:14:23.032Z,-0.7
2017-02-11T05:15:25.482Z,-0.7
2017-02-11T05:16:27.931Z,-0.7
2017-02-11T05:17:30.378Z,-0.7
2017-02-11T05:18:32.827Z,-0.7
2017-02-11T05:19:35.283Z,-0.7
2017-02-11T05:20:37.727Z,-0.7
2017-02-11T05:21:40.013Z,-0.7
2017-02-11T05:22:42.965Z,-0.7
2017-02-11T05:23:45.412Z,-0.7
2017-02-11T05:24:47.692Z,-0.7
2017-02-11T05:25:49.970Z,-0.7
2017-02-11T05:26:52.920Z,-0.7
2017-02-11T05:27:55.373Z,-0.7
2017-02-11T05:28:57.821Z,-0.7
2017-02-11T05:30:00.269Z,-0.7
2017-02-11T05:31:02.717Z,-0.7
2017-02-11T05:32:05.162Z,-0.7
2017-02-11T05:33:07.589Z,-0.7
2017-02-11T05:34:10.040Z,-0.7
2017-02-11T05:35:13.009Z,-0.7
2017-02-11T05:36:14.952Z,-0.7
2017-02-11T05:37:17.928Z,-0.7
2017-02-11T05:38:19.876Z,-0.7
2017-02-11T05:39:22.824Z,-0.7
2017-02-11T05:40:25.273Z,-0.7
2017-02-11T05:41:27.723Z,-0.7
2017-02-11T05:42:30.170Z,-0.7
2017-02-11T05:43:32.615Z,-0.7
2017-02-11T05:44:35.072Z,-0.7
2017-02-11T05:45:37.520Z,-0.7
2017-02-11T05:46:40.495Z,-0.7
2017-02-11T05:48:44.841Z,-0.7
2017-02-11T05:49:47.287Z,-0.7
2017-02-11T05:50:49.735Z,-0.7
2017-02-11T05:51:52.183Z,-0.7
2017-02-11T05:52:54.628Z,-0.7
2017-02-11T05:53:57.416Z,-0.7
2017-02-11T05:54:59.860Z,-0.7
2017-02-11T05:56:02.306Z,-0.7
2017-02-11T05:57:04.757Z,-0.7
2017-02-11T05:58:07.032Z,-0.7
2017-02-11T05:59:09.982Z,-0.7
2017-02-11T06:00:12.442Z,-0.7
2017-02-11T06:01:14.722Z,-0.8
2017-02-11T06:02:17.167Z,-0.8
2017-02-11T06:03:19.616Z,-0.8
2017-02-11T06:04:22.089Z,-0.8
2017-02-11T06:05:24.534Z,-0.8
2017-02-11T06:06:26.977Z,-0.8
2017-02-11T06:07:29.417Z,-0.8
2017-02-11T06:08:32.385Z,-0.8
2017-02-11T06:09:34.325Z,-0.8
2017-02-11T06:10:37.111Z,-0.8
2017-02-11T06:11:40.085Z,-0.8
2017-02-11T06:12:42.027Z,-0.8
2017-02-11T06:13:44.483Z,-0.8
2017-02-11T06:14:46.929Z,-0.8
2017-02-11T06:15:49.899Z,-0.8
2017-02-11T06:16:51.840Z,-0.8
2017-02-11T06:17:54.287Z,-0.8
2017-02-11T06:18:56.735Z,-0.8
2017-02-11T06:19:59.180Z,-0.8
2017-02-11T06:21:01.627Z,-0.8
2017-02-11T06:22:04.575Z,-0.8
2017-02-11T06:24:09.428Z,-0.8
2017-02-11T06:25:11.709Z,-0.8
2017-02-11T06:26:14.492Z,-0.8
2017-02-11T06:27:16.960Z,-0.8
2017-02-11T06:28:19.404Z,-0.8
2017-02-11T06:29:21.845Z,-0.8
2017-02-11T06:31:26.846Z,-0.8
2017-02-11T06:33:31.703Z,-0.8
2017-02-11T06:35:36.566Z,-0.8
2017-02-11T06:36:39.011Z,-0.8
2017-02-11T06:37:41.460Z,-0.8
2017-02-11T06:38:43.768Z,-0.8
2017-02-11T06:39:46.716Z,-0.8
2017-02-11T06:40:49.166Z,-0.8
2017-02-11T06:41:51.443Z,-0.8
2017-02-11T06:42:53.892Z,-0.8
2017-02-11T06:44:58.752Z,-0.8
2017-02-11T06:46:01.037Z,-0.8
2017-02-11T06:47:03.989Z,-0.8
2017-02-11T06:48:06.433Z,-0.8
2017-02-11T06:49:08.879Z,-0.8
2017-02-11T06:50:11.329Z,-0.8
2017-02-11T06:51:13.608Z,-0.8
2017-02-11T06:52:16.388Z,-0.8
2017-02-11T06:53:19.358Z,-0.8
2017-02-11T06:54:21.304Z,-0.8
2017-02-11T06:55:23.753Z,-0.8
2017-02-11T06:56:26.197Z,-0.8
2017-02-11T06:57:28.647Z,-0.8
2017-02-11T06:58:31.090Z,-0.8
2017-02-11T06:59:33.536Z,-0.8
2017-02-11T07:00:36.508Z,-0.9
2017-02-11T07:01:38.455Z,-0.9
2017-02-11T07:02:40.900Z,-0.9
2017-02-11T07:03:43.345Z,-0.9
2017-02-11T07:04:46.319Z,-0.8
2017-02-11T07:05:48.764Z,-0.8
2017-02-11T07:06:51.210Z,-0.9
2017-02-11T07:07:53.653Z,-0.8
2017-02-11T07:08:56.126Z,-0.8
2017-02-11T07:09:58.573Z,-0.8
2017-02-11T07:11:01.018Z,-0.9
2017-02-11T07:12:03.489Z,-0.8
2017-02-11T07:14:08.173Z,-0.9
2017-02-11T07:15:11.124Z,-0.8
2017-02-11T07:16:13.412Z,-0.8
2017-02-11T07:17:15.691Z,-0.8
2017-02-11T07:18:18.138Z,-0.8
2017-02-11T07:19:20.584Z,-0.8
2017-02-11T07:20:23.538Z,-0.8
2017-02-11T07:21:25.991Z,-0.8
2017-02-11T07:22:28.441Z,-0.8
2017-02-11T07:23:30.891Z,-0.8
2017-02-11T07:24:33.338Z,-0.8
2017-02-11T07:25:35.785Z,-0.8
2017-02-11T07:26:38.229Z,-0.8
2017-02-11T07:27:40.673Z,-0.8
2017-02-11T07:28:43.121Z,-0.8
2017-02-11T07:29:45.566Z,-0.8
2017-02-11T07:30:48.011Z,-0.8
2017-02-11T07:31:50.459Z,-0.8
2017-02-11T07:32:53.436Z,-0.8
2017-02-11T07:33:55.383Z,-0.8
2017-02-11T07:34:57.829Z,-0.8
2017-02-11T07:36:00.274Z,-0.8
2017-02-11T07:37:03.223Z,-0.8
2017-02-11T07:38:05.668Z,-0.8
2017-02-11T07:39:07.946Z,-0.8
2017-02-11T07:40:10.389Z,-0.8
2017-02-11T07:41:12.669Z,-0.8
2017-02-11T07:42:15.618Z,-0.8
2017-02-11T07:43:17.898Z,-0.8
2017-02-11T07:44:20.343Z,-0.8
2017-02-11T07:45:22.790Z,-0.8
2017-02-11T07:46:25.237Z,-0.8
2017-02-11T07:47:27.679Z,-0.9
2017-02-11T07:48:30.128Z,-0.8
2017-02-11T07:49:32.573Z,-0.8
2017-02-11T07:50:35.019Z,-0.8
2017-02-11T07:51:37.805Z,-0.8
2017-02-11T07:52:40.250Z,-0.8
2017-02-11T07:53:42.728Z,-0.8
2017-02-11T07:54:45.083Z,-0.8
2017-02-11T07:56:49.932Z,-0.8
2017-02-11T07:57:52.415Z,-0.8
2017-02-11T08:01:00.177Z,-0.8
2017-02-11T08:02:02.625Z,-0.8
2017-02-11T08:03:05.072Z,-0.8
2017-02-11T08:04:07.554Z,-0.8
2017-02-11T08:05:09.833Z,-0.8
2017-02-11T08:07:15.196Z,-0.8
2017-02-11T08:11:25.384Z,-0.8
2017-02-11T08:12:27.328Z,-0.8
2017-02-11T08:13:29.773Z,-0.8
2017-02-11T08:14:32.224Z,-0.8
2017-02-11T08:15:34.675Z,-0.8
2017-02-11T08:16:37.130Z,-0.8
2017-02-11T08:17:39.580Z,-0.8
2017-02-11T08:18:42.029Z,-0.8
2017-02-11T08:20:47.387Z,-0.8
2017-02-11T08:21:49.835Z,-0.8
2017-02-11T08:22:52.279Z,-0.8
2017-02-11T08:23:54.729Z,-0.8
2017-02-11T08:24:57.174Z,-0.8
2017-02-11T08:25:59.620Z,-0.8
2017-02-11T08:27:02.069Z,-0.8
2017-02-11T08:29:06.922Z,-0.8
2017-02-11T08:30:09.371Z,-0.8
2017-02-11T08:31:12.331Z,-0.8
2017-02-11T08:32:14.606Z,-0.8
2017-02-11T08:33:16.885Z,-0.8
2017-02-11T08:34:19.171Z,-0.8
2017-02-11T08:35:22.118Z,-0.8
2017-02-11T08:36:24.404Z,-0.8
2017-02-11T08:37:26.851Z,-0.8
2017-02-11T08:38:29.294Z,-0.8
2017-02-11T08:39:31.740Z,-0.8
2017-02-11T08:40:34.188Z,-0.8
2017-02-11T08:41:37.139Z,-0.8
2017-02-11T08:42:39.589Z,-0.8
2017-02-11T08:43:42.036Z,-0.8
2017-02-11T08:45:46.894Z,-0.8
2017-02-11T08:46:49.871Z,-0.8
2017-02-11T08:47:51.816Z,-0.8
2017-02-11T08:48:54.265Z,-0.7
2017-02-11T08:49:56.717Z,-0.8
2017-02-11T08:50:59.163Z,-0.7
2017-02-11T08:52:01.613Z,-0.7
2017-02-11T08:53:04.067Z,-0.7
2017-02-11T08:54:06.514Z,-0.7
2017-02-11T08:55:08.967Z,-0.7
2017-02-11T08:56:11.917Z,-0.7
2017-02-11T08:57:14.728Z,-0.7
2017-02-11T08:58:16.514Z,-0.7
2017-02-11T08:59:18.960Z,-0.7
2017-02-11T09:00:21.413Z,-0.7
2017-02-11T09:01:24.363Z,-0.7
2017-02-11T09:02:26.640Z,-0.7
2017-02-11T09:03:28.916Z,-0.7
2017-02-11T09:04:31.362Z,-0.7
2017-02-11T09:05:33.810Z,-0.7
2017-02-11T09:06:36.764Z,-0.7
2017-02-11T09:07:39.205Z,-0.7
2017-02-11T09:08:41.648Z,-0.7
2017-02-11T09:09:43.928Z,-0.7
2017-02-11T09:10:46.376Z,-0.7
2017-02-11T09:11:48.819Z,-0.7
2017-02-11T09:12:51.290Z,-0.7
2017-02-11T09:13:53.739Z,-0.7
2017-02-11T09:14:56.189Z,-0.7
2017-02-11T09:15:58.971Z,-0.7
2017-02-11T09:17:01.420Z,-0.6
2017-02-11T09:18:03.868Z,-0.6
2017-02-11T09:19:06.319Z,-0.6
2017-02-11T09:20:08.592Z,-0.6
2017-02-11T09:21:11.559Z,-0.6
2017-02-11T09:22:13.838Z,-0.6
2017-02-11T09:23:16.285Z,-0.6
2017-02-11T09:24:18.732Z,-0.6
2017-02-11T09:25:21.182Z,-0.6
2017-02-11T09:26:23.628Z,-0.6
2017-02-11T09:27:25.908Z,-0.6
2017-02-11T09:28:28.853Z,-0.6
2017-02-11T09:29:31.296Z,-0.6
2017-02-11T09:30:33.753Z,-0.6
2017-02-11T09:31:36.194Z,-0.6
2017-02-11T09:32:38.645Z,-0.6
2017-02-11T09:33:41.098Z,-0.6
2017-02-11T09:34:43.382Z,-0.6
2017-02-11T09:35:46.333Z,-0.6
2017-02-11T09:36:48.779Z,-0.6
2017-02-11T09:37:51.223Z,-0.6
2017-02-11T09:38:53.667Z,-0.6
2017-02-11T09:39:56.114Z,-0.6
2017-02-11T09:40:58.567Z,-0.6
2017-02-11T09:43:03.423Z,-0.6
2017-02-11T09:44:05.876Z,-0.6
2017-02-11T09:46:11.233Z,-0.6
2017-02-11T09:48:15.918Z,-0.6
2017-02-11T09:50:20.769Z,-0.6
2017-02-11T09:51:23.243Z,-0.6
2017-02-11T09:52:25.688Z,-0.6
2017-02-11T09:53:28.639Z,-0.5
2017-02-11T09:54:31.087Z,-0.5
2017-02-11T09:56:35.937Z,-0.5
2017-02-11T09:57:38.386Z,-0.5
2017-02-11T09:59:54.732Z,-0.4
2017-02-11T10:00:46.477Z,-0.5
2017-02-11T10:01:48.422Z,-0.4
2017-02-11T10:02:50.869Z,-0.4
2017-02-11T10:03:53.315Z,-0.4
2017-02-11T10:05:58.167Z,-0.4
2017-02-11T10:07:00.617Z,-0.3
2017-02-11T10:09:05.473Z,-0.3
2017-02-11T10:10:08.279Z,-0.3
2017-02-11T10:11:10.726Z,-0.3
2017-02-11T10:12:13.171Z,-0.3
2017-02-11T10:13:15.620Z,-0.3
2017-02-11T10:14:18.070Z,-0.3
2017-02-11T10:15:20.359Z,-0.3
2017-02-11T10:16:23.309Z,-0.3
2017-02-11T10:17:25.584Z,-0.3
2017-02-11T10:18:27.867Z,-0.3
2017-02-11T10:19:30.819Z,-0.3
2017-02-11T10:20:33.266Z,-0.3
2017-02-11T10:21:35.714Z,-0.3
2017-02-11T10:22:38.161Z,-0.3
2017-02-11T10:23:40.605Z,-0.3
2017-02-11T10:24:42.889Z,-0.3
2017-02-11T10:25:45.339Z,-0.3
2017-02-11T10:26:47.619Z,-0.3
2017-02-11T10:27:50.574Z,-0.3
2017-02-11T10:28:53.024Z,-0.3
2017-02-11T10:29:55.472Z,-0.3
2017-02-11T10:30:57.916Z,-0.3
2017-02-11T10:32:00.902Z,-0.3
2017-02-11T10:33:02.852Z,-0.3
2017-02-11T10:34:05.294Z,-0.3
2017-02-11T10:35:08.074Z,-0.3
2017-02-11T10:36:10.353Z,-0.3
2017-02-11T10:37:12.800Z,-0.3
2017-02-11T10:38:15.583Z,-0.3
2017-02-11T10:39:18.035Z,-0.3
2017-02-11T10:40:20.485Z,-0.3
2017-02-11T10:41:22.931Z,-0.3
2017-02-11T10:42:25.383Z,-0.3
2017-02-11T10:43:27.832Z,-0.3
2017-02-11T10:44:30.277Z,-0.3
2017-02-11T10:45:32.724Z,-0.3
2017-02-11T10:46:35.171Z,-0.3
2017-02-11T10:47:37.615Z,-0.3
2017-02-11T10:48:40.067Z,-0.3
2017-02-11T10:49:42.685Z,-0.3
2017-02-11T10:50:45.133Z,-0.3
2017-02-11T10:51:47.577Z,-0.3
2017-02-11T10:52:50.022Z,-0.3
2017-02-11T10:53:52.976Z,-0.3
2017-02-11T10:54:55.432Z,-0.3
2017-02-11T10:58:02.693Z,-0.3
2017-02-11T10:59:05.143Z,-0.3
2017-02-11T11:00:07.592Z,-0.3
2017-02-11T11:01:10.041Z,-0.3
2017-02-11T11:02:12.321Z,-0.3
2017-02-11T11:03:15.798Z,-0.3
2017-02-11T11:04:17.743Z,-0.3
2017-02-11T11:05:20.189Z,-0.3
2017-02-11T11:06:22.635Z,-0.3
2017-02-11T11:07:25.108Z,-0.3
2017-02-11T11:08:27.388Z,-0.2
2017-02-11T11:09:29.835Z,-0.3
2017-02-11T11:10:32.790Z,-0.2
2017-02-11T11:12:37.640Z,-0.3
2017-02-11T11:13:40.091Z,-0.2
2017-02-11T11:14:42.536Z,-0.2
2017-02-11T11:15:44.655Z,-0.2
2017-02-11T11:16:47.630Z,-0.2
2017-02-11T11:17:50.635Z,-0.2
2017-02-11T11:18:52.573Z,-0.2
2017-02-11T11:19:55.023Z,-0.2
2017-02-11T11:20:57.474Z,-0.2
2017-02-11T11:21:59.924Z,-0.2
2017-02-11T11:23:02.373Z,-0.2
2017-02-11T11:24:04.824Z,-0.2
2017-02-11T11:25:07.271Z,-0.2
2017-02-11T11:26:09.375Z,-0.2
2017-02-11T11:28:15.065Z,-0.2
2017-02-11T11:30:19.912Z,-0.2
2017-02-11T11:31:22.361Z,-0.2
2017-02-11T11:32:24.807Z,-0.2
2017-02-11T11:33:27.256Z,-0.2
2017-02-11T11:34:29.535Z,-0.2
2017-02-11T11:35:32.487Z,-0.2
2017-02-11T11:36:35.292Z,-0.2
2017-02-11T11:37:37.236Z,-0.2
2017-02-11T11:38:39.683Z,-0.2
2017-02-11T11:39:42.137Z,-0.2
2017-02-11T11:40:44.418Z,-0.2
2017-02-11T11:41:47.385Z,-0.2
2017-02-11T11:42:49.849Z,-0.2
2017-02-11T11:44:54.714Z,-0.2
2017-02-11T11:45:57.163Z,-0.2
2017-02-11T11:46:59.605Z,-0.2
2017-02-11T11:48:02.048Z,-0.2
2017-02-11T11:50:07.232Z,-0.2
2017-02-11T11:51:09.679Z,-0.2
2017-02-11T11:52:11.793Z,-0.2
2017-02-11T11:53:14.577Z,-0.2
2017-02-11T11:54:17.026Z,-0.2
2017-02-11T11:55:19.977Z,-0.2
2017-02-11T11:56:22.256Z,-0.2
2017-02-11T11:57:24.704Z,-0.2
2017-02-11T11:58:27.158Z,-0.2
2017-02-11T11:59:29.604Z,-0.2
2017-02-11T12:00:32.050Z,-0.2
2017-02-11T12:01:34.500Z,-0.2
2017-02-11T12:02:36.968Z,-0.2
2017-02-11T12:03:39.921Z,-0.2
2017-02-11T12:04:42.368Z,-0.2
2017-02-11T12:05:44.645Z,-0.2
2017-02-11T12:06:47.096Z,-0.2
2017-02-11T12:07:49.549Z,-0.2
2017-02-11T12:08:51.997Z,-0.2
2017-02-11T12:09:54.449Z,-0.1
2017-02-11T12:10:56.896Z,-0.2
2017-02-11T12:11:59.848Z,-0.2
2017-02-11T12:13:02.301Z,-0.1
2017-02-11T12:14:04.749Z,-0.2
2017-02-11T12:15:07.030Z,-0.1
2017-02-11T12:16:09.472Z,-0.2
2017-02-11T12:17:12.258Z,-0.1
2017-02-11T12:18:15.237Z,-0.2
2017-02-11T12:19:17.019Z,-0.2
2017-02-11T12:20:19.485Z,-0.1
2017-02-11T12:21:21.810Z,-0.1
2017-02-11T12:22:24.765Z,-0.1
2017-02-11T12:23:27.236Z,-0.1
2017-02-11T12:24:29.514Z,-0.2
2017-02-11T12:25:31.957Z,-0.1
2017-02-11T12:26:34.407Z,-0.1
2017-02-11T12:27:37.408Z,-0.2
2017-02-11T12:28:39.348Z,-0.1
2017-02-11T12:29:41.794Z,-0.1
2017-02-11T12:30:44.742Z,-0.1
2017-02-11T12:31:47.026Z,-0.1
2017-02-11T12:32:49.471Z,-0.1
2017-02-11T12:33:51.917Z,-0.1
2017-02-11T12:34:54.412Z,-0.1
2017-02-11T12:35:56.860Z,-0.1
2017-02-11T12:36:59.307Z,-0.1
2017-02-11T12:38:01.757Z,-0.1
2017-02-11T12:39:04.707Z,-0.1
2017-02-11T12:40:07.150Z,-0.1
2017-02-11T12:41:09.430Z,-0.1
2017-02-11T12:42:11.874Z,-0.2
2017-02-11T12:43:14.324Z,-0.1
2017-02-11T12:44:16.773Z,-0.1
2017-02-11T12:45:19.222Z,-0.2
2017-02-11T12:46:22.173Z,-0.2
2017-02-11T12:47:24.520Z,-0.1
2017-02-11T12:48:26.971Z,-0.1
2017-02-11T12:49:29.424Z,-0.1
2017-02-11T12:50:31.877Z,-0.1
2017-02-11T12:51:34.326Z,-0.1
2017-02-11T12:52:36.607Z,-0.1
2017-02-11T12:53:39.554Z,-0.1
2017-02-11T12:54:42.001Z,-0.1
2017-02-11T12:56:46.853Z,-0.1
2017-02-11T12:57:49.302Z,-0.1
2017-02-11T12:58:51.747Z,-0.1
2017-02-11T12:59:54.190Z,-0.1
2017-02-11T13:00:56.973Z,-0.1
2017-02-11T13:01:59.425Z,-0.1
2017-02-11T13:03:01.875Z,-0.1
2017-02-11T13:04:04.158Z,-0.1
2017-02-11T13:07:11.923Z,-0.1
2017-02-11T13:08:14.367Z,-0.1
2017-02-11T13:09:16.812Z,-0.1
2017-02-11T13:10:19.260Z,-0.1
2017-02-11T13:11:21.560Z,-0.1
2017-02-11T13:12:24.364Z,-0.1
2017-02-11T13:14:28.883Z,-0.1
2017-02-11T13:15:31.835Z,-0.1
2017-02-11T13:16:34.117Z,-0.1
2017-02-11T13:17:36.398Z,-0.1
2017-02-11T13:18:39.353Z,-0.1
2017-02-11T13:19:41.796Z,-0.1
2017-02-11T16:27:10.677Z,-0.2
2017-02-11T16:29:15.526Z,-0.2
2017-02-11T16:30:18.310Z,-0.2
2017-02-11T16:33:25.569Z,-0.2
2017-02-11T16:34:28.024Z,-0.2
2017-02-11T16:35:30.680Z,-0.2
2017-02-11T16:36:33.156Z,-0.2
2017-02-11T16:37:35.937Z,-0.2
2017-02-11T16:38:38.048Z,-0.2
2017-02-11T16:39:40.497Z,-0.2
2017-02-11T16:40:42.948Z,-0.2
2017-02-11T16:41:45.903Z,-0.2
2017-02-11T16:42:48.350Z,-0.2
2017-02-11T16:45:56.141Z,-0.2
2017-02-11T16:46:57.916Z,-0.2
2017-02-11T16:48:00.870Z,-0.2
2017-02-11T16:50:05.392Z,-0.2
2017-02-11T16:51:07.970Z,-0.2
2017-02-11T16:52:10.422Z,-0.3
2017-02-11T16:53:12.534Z,-0.3
2017-02-11T16:54:16.011Z,-0.2
2017-02-11T16:55:17.953Z,-0.2
2017-02-11T16:56:20.229Z,-0.3
2017-02-11T16:57:23.186Z,-0.2
2017-02-11T16:58:25.466Z,-0.2
2017-02-11T17:00:30.332Z,-0.2
2017-02-11T17:01:32.780Z,-0.2
2017-02-11T17:03:38.133Z,-0.2
2017-02-11T17:04:40.585Z,-0.2
2017-02-11T17:05:43.035Z,-0.2
2017-02-11T17:06:45.481Z,-0.2
2017-02-11T17:07:47.935Z,-0.2
2017-02-11T17:08:50.380Z,-0.3
2017-02-11T17:09:52.827Z,-0.2
2017-02-11T17:10:55.277Z,-0.2
2017-02-11T17:11:58.248Z,-0.2
2017-02-11T17:13:00.193Z,-0.2
2017-02-11T17:14:02.642Z,-0.2
2017-02-11T17:15:05.948Z,-0.2
2017-02-11T17:16:07.893Z,-0.2
2017-02-11T17:17:10.348Z,-0.3
2017-02-11T17:19:15.029Z,-0.3
2017-02-11T17:20:17.977Z,-0.3
2017-02-11T17:21:20.424Z,-0.3
2017-02-11T17:42:10.070Z,-0.3
2017-02-11T17:45:17.598Z,-0.2
2017-02-11T17:46:20.044Z,-0.2
2017-02-11T17:47:22.559Z,-0.3
2017-02-11T17:48:25.003Z,-0.2
2017-02-11T17:49:27.445Z,-0.2
2017-02-11T17:53:37.436Z,-0.2
2017-02-11T17:54:39.885Z,-0.2
2017-02-11T17:56:44.740Z,-0.2
2017-02-11T17:57:47.185Z,-0.2
2017-02-11T17:58:49.973Z,-0.3
2017-02-11T17:59:52.422Z,-0.3
2017-02-11T18:00:54.873Z,-0.3
2017-02-11T18:01:57.327Z,-0.3
2017-02-11T18:02:59.775Z,-0.3
2017-02-11T18:04:02.761Z,-0.2
2017-02-11T18:05:05.236Z,-0.2
2017-02-11T18:06:07.206Z,-0.2
2017-02-11T18:07:10.009Z,-0.3
2017-02-11T18:08:11.946Z,-0.3
2017-02-11T18:09:14.897Z,-0.3
2017-02-11T18:10:17.346Z,-0.3
2017-02-11T18:11:19.794Z,-0.2
2017-02-11T18:12:22.243Z,-0.3
2017-02-11T18:13:24.695Z,-0.3
2017-02-11T18:14:27.139Z,-0.3
2017-02-11T18:15:29.472Z,-0.3
2017-02-11T18:16:31.749Z,-0.3
2017-02-11T18:17:34.694Z,-0.3
2017-02-11T18:18:36.933Z,-0.3
2017-02-11T18:19:39.386Z,-0.2
2017-02-11T18:20:41.865Z,-0.3
2017-02-11T18:21:44.314Z,-0.3
2017-02-11T18:22:46.762Z,-0.3
2017-02-11T18:23:49.553Z,-0.3
2017-02-11T18:24:52.000Z,-0.3
2017-02-11T18:25:54.446Z,-0.3
2017-02-11T18:26:56.899Z,-0.3
2017-02-11T18:27:59.882Z,-0.2
2017-02-11T18:29:02.353Z,-0.2
2017-02-11T18:30:03.956Z,-0.3
2017-02-11T18:31:06.743Z,-0.3